Time;durP1;ratioP1;P1;durP2;ratioP2;P2;SDS_P1;SDS_P2;PMS_P1;PMS_P2;Temp;Humidity;BMP_temperature;BMP_pressure;BME280_temperature;BME280_humidity;BME280_pressure;Samples;Min_cycle;Max_cycle;Signal;HPM_P1;HPM_P2
2021/11/04 00:00:16;;;;;;;;;5.00;5.00;;;;;21.15;40.40;100105.78;4997070;28;45460;-51
2021/11/04 00:02:42;;;;;;;;;5.25;5.00;;;;;21.13;39.85;100106.81;4997217;28;45437;-56
2021/11/04 00:05:08;;;;;;;;;7.00;5.50;;;;;21.13;40.21;100104.19;4996906;28;45423;-61
2021/11/04 00:07:34;;;;;;;;;9.00;7.25;;;;;21.14;40.21;100104.09;4996750;28;45379;-58
2021/11/04 00:09:59;;;;;;;;;8.50;5.75;;;;;21.13;40.28;100104.19;4979365;28;45538;-61
2021/11/04 00:12:25;;;;;;;;;6.00;6.00;;;;;21.13;40.12;100101.53;4997144;28;45365;-59
2021/11/04 00:14:50;;;;;;;;;5.50;5.00;;;;;21.12;40.27;100110.41;4996690;28;45530;-61
2021/11/04 00:17:17;;;;;;;;;6.00;6.00;;;;;21.13;40.17;100112.09;4996757;28;45373;-59
2021/11/04 00:19:43;;;;;;;;;7.25;5.50;;;;;21.10;40.43;100107.06;4996790;28;45272;-58
2021/11/04 00:22:10;;;;;;;;;6.75;6.50;;;;;21.10;40.23;100101.78;4997151;28;45233;-60
2021/11/04 00:24:36;;;;;;;;;8.75;6.75;;;;;21.07;39.96;100094.91;4996665;28;46416;-54
2021/11/04 00:27:01;;;;;;;;;8.00;6.00;;;;;21.09;40.48;100094.81;4996572;28;45731;-52
2021/11/04 00:29:27;;;;;;;;;7.25;6.00;;;;;21.08;39.89;100093.13;4996688;28;46139;-57
2021/11/04 00:31:52;;;;;;;;;7.00;7.00;;;;;21.07;39.87;100097.53;4996860;28;45783;-59
2021/11/04 00:34:17;;;;;;;;;5.25;4.50;;;;;21.07;39.84;100097.53;4996574;28;45518;-58
2021/11/04 00:36:44;;;;;;;;;8.25;6.00;;;;;21.06;39.87;100095.03;4996417;28;45401;-50
2021/11/04 00:39:11;;;;;;;;;8.75;6.00;;;;;21.07;39.96;100102.00;4979256;28;45392;-61
2021/11/04 00:41:36;;;;;;;;;10.50;7.00;;;;;21.04;40.09;100091.66;4996785;28;45322;-59
2021/11/04 00:44:02;;;;;;;;;5.00;5.00;;;;;21.03;40.39;100093.47;4996309;28;46469;-54
2021/11/04 00:46:30;;;;;;;;;5.00;5.00;;;;;21.06;40.01;100100.31;4996434;28;45922;-61
2021/11/04 00:48:55;;;;;;;;;6.25;6.25;;;;;21.03;40.10;100108.41;4996296;28;45232;-57
2021/11/04 00:51:20;;;;;;;;;6.25;6.00;;;;;21.04;40.42;100120.63;4996598;28;45285;-55
2021/11/04 00:53:46;;;;;;;;;8.75;6.00;;;;;21.03;40.12;100124.22;4981904;28;47006;-50
2021/11/04 00:56:11;;;;;;;;;5.50;5.50;;;;;21.03;40.19;100116.31;5000133;28;45409;-58
2021/11/04 00:58:37;;;;;;;;;7.25;6.00;;;;;21.01;40.43;100109.34;4999889;28;45318;-57
2021/11/04 01:01:02;;;;;;;;;5.50;5.50;;;;;21.00;40.45;100117.38;4999957;28;45330;-55
2021/11/04 01:03:28;;;;;;;;;6.00;6.00;;;;;21.01;40.46;100113.78;4981870;28;45466;-56
2021/11/04 01:05:54;;;;;;;;;7.00;7.00;;;;;20.99;39.93;100105.16;4999661;28;45380;-50
2021/11/04 01:08:19;;;;;;;;;5.00;5.00;;;;;20.99;40.21;100115.69;4999765;28;45410;-58
2021/11/04 01:10:45;;;;;;;;;5.25;5.25;;;;;20.99;40.19;100106.00;4999813;28;45633;-50
2021/11/04 01:13:10;;;;;;;;;6.25;6.25;;;;;20.97;40.08;100113.16;4998618;28;46661;-55
2021/11/04 01:15:35;;;;;;;;;4.25;4.25;;;;;20.97;40.34;100104.41;4999521;28;45437;-59
2021/11/04 01:18:01;;;;;;;;;9.25;6.25;;;;;20.97;40.49;100112.31;4999586;28;45287;-61
2021/11/04 01:20:27;;;;;;;;;5.00;5.00;;;;;20.97;40.43;100109.66;4981971;28;45620;-61
2021/11/04 01:22:53;;;;;;;;;7.25;6.50;;;;;20.95;39.94;100107.16;4999383;28;46234;-60
2021/11/04 01:25:18;;;;;;;;;6.00;5.00;;;;;20.97;40.36;100112.31;4999302;28;45359;-51
2021/11/04 01:27:44;;;;;;;;;8.00;5.75;;;;;20.95;40.01;100115.06;4999901;28;45181;-54
2021/11/04 01:30:09;;;;;;;;;9.00;6.00;;;;;20.96;40.22;100113.25;4999419;28;45215;-54
2021/11/04 01:32:36;;;;;;;;;6.00;4.25;;;;;20.94;40.20;100107.28;4999336;28;45712;-54
2021/11/04 01:35:04;;;;;;;;;6.75;5.00;;;;;20.95;40.34;100111.56;4999243;28;45935;-57
2021/11/04 01:37:29;;;;;;;;;7.00;7.00;;;;;20.95;40.10;100119.47;4999316;28;46002;-55
2021/11/04 01:39:55;;;;;;;;;6.25;5.00;;;;;20.92;40.20;100110.00;4999452;28;45387;-59
2021/11/04 01:42:21;;;;;;;;;5.00;3.75;;;;;20.93;40.23;100119.59;4998855;28;46653;-54
2021/11/04 01:44:46;;;;;;;;;5.50;5.50;;;;;20.92;40.51;100114.44;4999173;28;45370;-54
2021/11/04 01:47:13;;;;;;;;;6.25;6.00;;;;;20.92;40.41;100120.53;4999527;28;45373;-54
2021/11/04 01:49:39;;;;;;;;;1.25;1.25;;;;;20.91;40.02;100124.09;4999070;28;45643;-54
2021/11/04 01:52:05;;;;;;;;;5.75;5.25;;;;;20.91;40.42;100116.19;4998893;28;46554;-51
2021/11/04 01:54:30;;;;;;;;;4.50;4.50;;;;;20.89;40.27;100110.19;4998888;28;45306;-52
2021/11/04 01:56:56;;;;;;;;;7.25;5.50;;;;;20.91;40.03;100115.38;4999044;28;45381;-49
2021/11/04 01:59:21;;;;;;;;;7.00;5.50;;;;;20.90;40.29;100106.59;4999220;28;45569;-46
2021/11/04 02:02:00;;;;;;;;;6.00;6.00;;;;;20.88;40.45;100108.53;4980942;28;45930;-50
2021/11/04 02:05:02;;;;;;;;;7.50;7.00;;;;;20.89;40.53;100109.38;4998560;28;45458;-51
2021/11/04 02:07:37;;;;;;;;;6.50;6.50;;;;;20.87;40.46;100112.13;4996667;28;45460;-45
2021/11/04 02:10:19;;;;;;;;;9.50;6.50;;;;;20.88;40.08;100108.53;4998952;28;45476;-53
2021/11/04 02:12:57;;;;;;;;;7.00;6.00;;;;;20.88;40.51;100118.22;4998937;28;45739;-57
2021/11/04 02:15:26;;;;;;;;;5.25;4.25;;;;;20.86;40.15;100123.59;4998528;28;45882;-53
2021/11/04 02:17:55;;;;;;;;;8.00;7.00;;;;;20.85;40.14;100116.63;4998884;28;45369;-52
2021/11/04 02:20:42;;;;;;;;;5.50;5.00;;;;;20.85;40.18;100119.28;4998715;28;45531;-53
2021/11/04 02:23:17;;;;;;;;;6.00;6.00;;;;;20.84;40.54;100112.31;4980710;28;48377;-56
2021/11/04 02:25:44;;;;;;;;;4.75;4.75;;;;;20.84;40.47;100121.03;4981041;28;45967;-50
2021/11/04 02:28:12;;;;;;;;;8.50;6.25;;;;;20.84;39.98;100123.69;4998564;28;45457;-58
2021/11/04 02:30:39;;;;;;;;;6.00;5.00;;;;;20.85;40.38;100132.44;4998778;28;45393;-51
2021/11/04 02:33:07;;;;;;;;;7.00;5.75;;;;;20.83;40.58;100127.28;4998203;28;46485;-58
2021/11/04 02:35:32;;;;;;;;;7.00;7.00;;;;;20.83;40.07;100127.28;4998297;28;45307;-50
2021/11/04 02:37:58;;;;;;;;;5.75;5.75;;;;;20.82;40.29;100124.72;4998508;28;45404;-58
2021/11/04 02:40:25;;;;;;;;;6.00;6.00;;;;;20.83;40.15;100132.56;4998523;28;45395;-55
2021/11/04 02:42:51;;;;;;;;;8.25;5.00;;;;;20.81;40.50;100117.78;4997976;28;45578;-52
2021/11/04 02:45:21;;;;;;;;;6.00;6.00;;;;;20.83;40.04;100121.16;4998516;28;45262;-54
2021/11/04 02:47:47;;;;;;;;;6.50;6.50;;;;;20.81;40.46;100139.72;4998583;28;45461;-58
2021/11/04 02:50:12;;;;;;;;;5.50;5.25;;;;;20.82;40.48;100141.41;4998286;28;45618;-58
2021/11/04 02:52:38;;;;;;;;;5.00;5.00;;;;;20.82;40.46;100140.53;4980259;28;47187;-56
2021/11/04 02:55:06;;;;;;;;;6.00;6.00;;;;;20.80;40.17;100138.03;4997997;28;45499;-60
2021/11/04 02:57:40;;;;;;;;;2.00;1.00;;;;;20.80;40.02;100147.69;4998218;28;45338;-57
2021/11/04 03:00:06;;;;;;;;;5.25;5.25;;;;;20.79;39.97;100143.38;4998217;28;45270;-61
2021/11/04 03:02:31;;;;;;;;;6.75;6.75;;;;;20.76;40.66;100144.44;4997544;28;45339;-58
2021/11/04 03:04:57;;;;;;;;;4.25;4.25;;;;;20.79;40.34;100143.38;4997720;28;45212;-55
2021/11/04 03:07:22;;;;;;;;;5.75;5.00;;;;;20.78;40.58;100149.63;4997955;28;45248;-55
2021/11/04 03:09:47;;;;;;;;;6.25;5.25;;;;;20.78;40.38;100146.97;4998370;28;45570;-58
2021/11/04 03:12:13;;;;;;;;;5.75;5.00;;;;;20.78;40.23;100154.88;4997681;28;45346;-61
2021/11/04 03:14:38;;;;;;;;;8.00;6.00;;;;;20.78;40.48;100144.34;4997006;28;45318;-61
2021/11/04 03:17:05;;;;;;;;;4.00;4.00;;;;;20.78;40.70;100142.53;4996577;28;45353;-56
2021/11/04 03:19:31;;;;;;;;;7.00;6.00;;;;;20.77;40.31;100145.28;4997931;28;45327;-61
2021/11/04 03:21:57;;;;;;;;;5.50;4.25;;;;;20.77;40.50;100146.13;4997462;28;46504;-62
2021/11/04 03:24:25;;;;;;;;;7.00;6.75;;;;;20.77;40.15;100150.56;4997563;28;45699;-64
2021/11/04 03:27:06;;;;;;;;;6.50;6.50;;;;;20.78;40.25;100154.88;4998216;28;45476;-63
2021/11/04 03:29:36;;;;;;;;;6.00;5.00;;;;;20.74;40.05;100148.09;4980238;28;45428;-62
2021/11/04 03:32:06;;;;;;;;;6.50;5.25;;;;;20.74;40.26;100150.72;4997652;28;45516;-62
2021/11/04 03:34:34;;;;;;;;;5.00;4.00;;;;;20.76;40.09;100151.50;4996697;28;45416;-59
2021/11/04 03:37:02;;;;;;;;;6.00;6.00;;;;;20.75;40.26;100157.72;4997532;28;45468;-62
2021/11/04 03:39:29;;;;;;;;;5.50;5.50;;;;;20.74;40.19;100164.75;4980010;28;45259;-62
2021/11/04 03:41:58;;;;;;;;;5.25;5.25;;;;;20.73;40.32;100164.84;4997031;28;46151;-62
2021/11/04 03:44:26;;;;;;;;;6.25;5.50;;;;;20.72;40.68;100165.78;4997160;28;45743;-62
2021/11/04 03:46:53;;;;;;;;;5.00;3.75;;;;;20.73;40.64;100167.47;4997846;28;45404;-62
2021/11/04 03:49:20;;;;;;;;;6.00;6.00;;;;;20.73;40.04;100162.19;4997786;28;45228;-62
2021/11/04 03:51:48;;;;;;;;;6.75;5.50;;;;;20.73;39.94;100172.72;4997157;28;46595;-62
2021/11/04 03:54:15;;;;;;;;;6.25;6.00;;;;;20.71;40.67;100170.22;4979593;28;45765;-62
2021/11/04 03:56:40;;;;;;;;;7.00;5.00;;;;;20.70;40.19;100169.34;4997339;28;45313;-62
2021/11/04 03:59:06;;;;;;;;;6.00;4.25;;;;;20.70;39.87;100174.63;4997398;28;45338;-62
2021/11/04 04:01:33;;;;;;;;;7.50;5.50;;;;;20.69;40.42;100172.94;4997056;28;45407;-62
2021/11/04 04:03:58;;;;;;;;;5.25;5.25;;;;;20.70;40.49;100174.63;4996898;28;45440;-60
2021/11/04 04:06:24;;;;;;;;;5.00;5.00;;;;;20.68;40.25;100175.69;4997217;28;45369;-59
2021/11/04 04:08:51;;;;;;;;;7.00;5.75;;;;;20.69;40.40;100177.38;4997561;28;45524;-61
2021/11/04 04:11:17;;;;;;;;;7.75;6.75;;;;;20.69;40.12;100166.84;4996811;28;46411;-61
2021/11/04 04:13:42;;;;;;;;;4.25;4.25;;;;;20.68;40.61;100175.69;4996869;28;45709;-61
2021/11/04 04:16:07;;;;;;;;;5.75;5.75;;;;;20.68;40.17;100175.69;4997128;28;45254;-58
2021/11/04 04:18:33;;;;;;;;;5.50;5.50;;;;;20.68;40.06;100179.13;4979632;28;45422;-56
2021/11/04 04:20:59;;;;;;;;;5.75;5.75;;;;;20.68;40.53;100178.31;4996863;28;46417;-51
2021/11/04 04:23:24;;;;;;;;;5.00;5.00;;;;;20.68;40.30;100183.56;4996868;28;45310;-47
2021/11/04 04:25:50;;;;;;;;;5.75;5.50;;;;;20.67;40.14;100185.34;4996846;28;45463;-57
2021/11/04 04:28:15;;;;;;;;;6.00;5.25;;;;;20.66;40.15;100178.41;4996207;28;45268;-60
2021/11/04 04:30:41;;;;;;;;;5.75;4.00;;;;;20.67;40.34;100179.25;4996415;28;45450;-59
2021/11/04 04:33:06;;;;;;;;;7.00;6.00;;;;;20.66;40.45;100183.69;4995347;28;45372;-53
2021/11/04 04:35:31;;;;;;;;;5.00;5.00;;;;;20.63;40.10;100186.50;4996743;28;45751;-54
2021/11/04 04:37:57;;;;;;;;;6.00;6.00;;;;;20.64;40.59;100190.84;4996881;28;45226;-52
2021/11/04 04:40:22;;;;;;;;;7.75;7.75;;;;;20.65;40.28;100199.56;4979090;28;45490;-61
2021/11/04 04:42:48;;;;;;;;;5.75;5.75;;;;;20.65;40.18;100204.84;4996435;28;45443;-59
2021/11/04 04:45:16;;;;;;;;;5.00;5.00;;;;;20.66;40.30;100206.53;4996644;28;45228;-57
2021/11/04 04:47:42;;;;;;;;;5.25;5.25;;;;;20.64;40.59;100209.28;4996703;28;45378;-57
2021/11/04 04:50:08;;;;;;;;;5.50;5.00;;;;;20.63;40.07;100215.47;4996280;28;46789;-56
2021/11/04 04:52:34;;;;;;;;;4.75;4.75;;;;;20.61;40.79;100206.00;4996444;28;45307;-52
2021/11/04 04:55:00;;;;;;;;;6.75;5.25;;;;;20.64;40.68;100211.91;4996368;28;45848;-59
2021/11/04 04:57:26;;;;;;;;;6.00;5.00;;;;;20.63;40.13;100210.22;4996656;28;45571;-58
2021/11/04 04:59:55;;;;;;;;;7.00;6.75;;;;;20.63;40.15;100212.84;4996488;28;46173;-55
2021/11/04 05:02:22;;;;;;;;;4.75;4.50;;;;;20.62;40.21;100213.78;4996553;28;45322;-57
2021/11/04 05:04:48;;;;;;;;;4.75;4.75;;;;;20.62;40.70;100212.94;4996198;28;45401;-50
2021/11/04 05:07:14;;;;;;;;;6.00;4.75;;;;;20.60;40.24;100207.78;4996463;28;45368;-52
2021/11/04 05:09:39;;;;;;;;;5.25;5.25;;;;;20.62;40.32;100208.53;4995814;28;46196;-52
2021/11/04 05:12:05;;;;;;;;;7.00;7.00;;;;;20.62;40.31;100205.03;4996068;28;45362;-49
2021/11/04 05:14:30;;;;;;;;;5.00;5.00;;;;;20.62;40.49;100208.53;4996207;28;45405;-54
2021/11/04 05:16:56;;;;;;;;;5.00;4.50;;;;;20.59;40.82;100198.19;4996342;28;45779;-50
2021/11/04 05:19:22;;;;;;;;;6.25;5.25;;;;;20.61;40.34;100206.81;4996255;28;45270;-49
2021/11/04 05:21:48;;;;;;;;;7.00;6.50;;;;;20.61;40.73;100212.09;4996038;28;45211;-51
2021/11/04 05:24:13;;;;;;;;;6.00;6.00;;;;;20.61;40.44;100213.91;4996099;28;45417;-48
2021/11/04 05:26:39;;;;;;;;;4.75;4.75;;;;;20.59;40.79;100213.97;4996288;28;45579;-50
2021/11/04 05:29:04;;;;;;;;;6.00;5.00;;;;;20.59;40.37;100219.25;4995769;28;45790;-49
2021/11/04 05:31:30;;;;;;;;;4.75;4.75;;;;;20.60;40.88;100220.09;4994633;28;45321;-47
2021/11/04 05:33:55;;;;;;;;;5.00;5.00;;;;;20.58;40.75;100217.56;4996298;28;45298;-55
2021/11/04 05:36:22;;;;;;;;;5.25;5.00;;;;;20.59;40.49;100229.78;4996092;28;45241;-48
2021/11/04 05:38:48;;;;;;;;;6.75;5.00;;;;;20.59;40.47;100228.94;4979904;28;48035;-51
2021/11/04 05:41:13;;;;;;;;;6.00;4.50;;;;;20.58;40.72;100235.97;4999021;28;45526;-47
2021/11/04 05:43:39;;;;;;;;;4.75;3.50;;;;;20.58;41.02;100233.34;4999253;28;45314;-50
2021/11/04 05:46:04;;;;;;;;;5.00;5.00;;;;;20.57;40.68;100230.81;4999411;28;45286;-50
2021/11/04 05:48:30;;;;;;;;;7.00;5.00;;;;;20.57;41.04;100231.66;4998847;28;45442;-50
2021/11/04 05:50:55;;;;;;;;;5.00;5.00;;;;;20.59;41.05;100234.22;4999426;28;45441;-52
2021/11/04 05:53:22;;;;;;;;;6.00;5.00;;;;;20.58;40.65;100224.63;4999042;28;45338;-49
2021/11/04 05:55:49;;;;;;;;;6.25;4.75;;;;;20.58;40.50;100232.53;4999272;28;45469;-56
2021/11/04 05:58:14;;;;;;;;;4.00;4.00;;;;;20.58;40.91;100243.88;4998871;28;46178;-56
2021/11/04 06:00:40;;;;;;;;;6.00;4.25;;;;;20.55;41.02;100229.13;4998760;28;45370;-53
2021/11/04 06:03:05;;;;;;;;;7.25;6.00;;;;;20.55;40.83;100244.94;4998898;28;45442;-57
2021/11/04 06:05:30;;;;;;;;;5.00;5.00;;;;;20.54;40.69;100245.88;4998819;28;45376;-58
2021/11/04 06:07:56;;;;;;;;;6.00;6.00;;;;;20.55;40.81;100244.94;4998806;28;46069;-58
2021/11/04 06:10:21;;;;;;;;;5.75;5.00;;;;;20.53;40.88;100243.34;4998680;28;45275;-56
2021/11/04 06:12:47;;;;;;;;;5.00;4.00;;;;;20.54;40.95;100242.41;4998910;28;45485;-49
2021/11/04 06:15:12;;;;;;;;;4.00;4.00;;;;;20.51;40.84;100243.44;4998865;28;45450;-58
2021/11/04 06:17:38;;;;;;;;;5.00;5.00;;;;;20.53;40.98;100246.81;4998609;28;45599;-56
2021/11/04 06:20:04;;;;;;;;;5.00;5.00;;;;;20.53;41.01;100251.25;4998433;28;45370;-51
2021/11/04 06:22:30;;;;;;;;;5.50;4.25;;;;;20.53;40.72;100248.63;4998519;28;45371;-47
2021/11/04 06:24:55;;;;;;;;;6.00;5.00;;;;;20.57;41.28;100259.78;4999034;28;45560;-50
2021/11/04 06:27:20;;;;;;;;;6.00;4.25;;;;;20.56;41.20;100251.03;4998368;28;46613;-51
2021/11/04 06:29:46;;;;;;;;;5.00;5.00;;;;;20.61;41.46;100256.03;4998547;28;45310;-49
2021/11/04 06:32:11;;;;;;;;;5.75;4.25;;;;;20.62;41.07;100261.19;4998545;28;45472;-48
2021/11/04 06:34:37;;;;;;;;;4.25;4.00;;;;;20.64;40.95;100264.56;4998803;28;45358;-54
2021/11/04 06:37:02;;;;;;;;;5.50;3.00;;;;;20.64;41.27;100263.69;4980478;28;45521;-55
2021/11/04 06:39:28;;;;;;;;;4.00;4.00;;;;;20.64;41.04;100268.97;4997570;28;46163;-60
2021/11/04 06:41:54;;;;;;;;;4.50;4.50;;;;;20.65;41.06;100275.94;4998599;28;45232;-58
2021/11/04 06:44:19;;;;;;;;;6.25;6.25;;;;;20.65;41.09;100274.16;4998758;28;45572;-57
2021/11/04 06:46:48;;;;;;;;;5.25;5.25;;;;;20.63;41.33;100272.53;4998276;28;46184;-51
2021/11/04 06:49:17;;;;;;;;;5.00;3.75;;;;;20.61;41.00;100275.28;4997583;28;45446;-60
2021/11/04 06:51:45;;;;;;;;;6.00;5.00;;;;;20.58;41.28;100280.75;4997933;28;45242;-57
2021/11/04 06:54:13;;;;;;;;;5.75;4.50;;;;;20.58;40.96;100282.53;4998510;28;45508;-57
2021/11/04 06:56:41;;;;;;;;;5.00;4.00;;;;;20.57;40.93;100284.31;4998079;28;45403;-49
2021/11/04 06:59:17;;;;;;;;;5.00;4.00;;;;;20.57;41.35;100289.56;4998003;28;45771;-48
2021/11/04 07:01:48;;;;;;;;;3.25;3.00;;;;;20.57;41.33;100289.56;4997966;28;45295;-45
2021/11/04 07:04:23;;;;;;;;;3.25;3.25;;;;;20.54;40.94;100289.81;4997920;28;45304;-47
2021/11/04 07:06:55;;;;;;;;;3.75;3.75;;;;;20.49;41.05;100287.47;4998012;28;45614;-57
2021/11/04 07:09:21;;;;;;;;;4.75;4.25;;;;;20.53;41.44;100293.38;4997773;28;45220;-48
2021/11/04 07:11:49;;;;;;;;;5.00;3.25;;;;;20.53;41.43;100294.19;4998064;28;45663;-49
2021/11/04 07:14:15;;;;;;;;;6.25;4.00;;;;;20.52;41.09;100303.03;4997972;28;45523;-49
2021/11/04 07:16:40;;;;;;;;;2.75;2.75;;;;;20.52;40.90;100302.22;4997590;28;46169;-52
2021/11/04 07:19:05;;;;;;;;;4.75;4.75;;;;;20.51;41.35;100311.88;4997791;28;45391;-51
2021/11/04 07:21:41;;;;;;;;;3.75;2.75;;;;;20.52;40.97;100312.75;4998075;28;45499;-53
2021/11/04 07:24:08;;;;;;;;;5.00;5.00;;;;;20.51;41.53;100322.41;4998085;28;45374;-53
2021/11/04 07:26:39;;;;;;;;;3.00;3.00;;;;;20.51;41.53;100326.84;4997633;28;46074;-53
2021/11/04 07:29:07;;;;;;;;;4.75;3.00;;;;;20.49;40.96;100332.22;4997407;28;45914;-51
2021/11/04 07:31:40;;;;;;;;;4.75;4.25;;;;;20.51;41.57;100334.75;4997879;28;45334;-54
2021/11/04 07:34:08;;;;;;;;;4.00;2.25;;;;;20.51;41.32;100338.19;4997910;28;45388;-51
2021/11/04 07:36:35;;;;;;;;;4.75;4.75;;;;;20.52;41.18;100333.81;4979818;28;47940;-48
2021/11/04 07:39:03;;;;;;;;;4.50;3.50;;;;;20.50;41.59;100344.44;4997774;28;45374;-56
2021/11/04 07:41:32;;;;;;;;;3.75;3.75;;;;;20.50;41.56;100351.47;4997788;28;45445;-54
2021/11/04 07:43:58;;;;;;;;;3.25;3.25;;;;;20.49;41.14;100355.03;4997714;28;45524;-52
2021/11/04 07:46:25;;;;;;;;;3.75;3.00;;;;;20.48;41.13;100353.34;4979630;28;48513;-60
2021/11/04 07:48:51;;;;;;;;;3.25;3.00;;;;;20.47;41.31;100364.81;4997415;28;45793;-50
2021/11/04 07:51:16;;;;;;;;;3.00;3.00;;;;;20.46;41.11;100365.75;4997460;28;45318;-58
2021/11/04 07:53:41;;;;;;;;;6.00;5.00;;;;;20.43;41.61;100371.25;4997475;28;45290;-54
2021/11/04 07:56:09;;;;;;;;;3.00;3.00;;;;;20.44;41.19;100362.41;4997014;28;46177;-48
2021/11/04 07:58:35;;;;;;;;;3.25;3.25;;;;;20.44;41.36;100372.94;4996331;28;45821;-57
2021/11/04 08:01:00;;;;;;;;;3.00;2.25;;;;;20.44;41.26;100383.47;4997142;28;45473;-57
2021/11/04 08:03:25;;;;;;;;;4.50;2.50;;;;;20.43;41.48;100371.25;4997152;28;45429;-51
2021/11/04 08:05:51;;;;;;;;;2.25;2.25;;;;;20.44;41.53;100380.81;4996955;28;46453;-55
2021/11/04 08:08:17;;;;;;;;;3.00;3.00;;;;;20.43;41.81;100387.88;4997018;28;45855;-58
2021/11/04 08:10:42;;;;;;;;;2.00;2.00;;;;;20.44;41.40;100386.91;4979481;28;45343;-57
2021/11/04 08:13:12;;;;;;;;;5.00;3.25;;;;;20.44;41.91;100386.09;4997160;28;45306;-50
2021/11/04 08:15:39;;;;;;;;;5.50;3.00;;;;;20.47;41.52;100385.88;4995311;28;48855;-57
2021/11/04 08:18:07;;;;;;;;;2.25;2.25;;;;;20.47;42.25;100391.16;4997139;28;45310;-59
2021/11/04 08:20:32;;;;;;;;;2.25;2.25;;;;;20.46;42.22;100392.06;4997400;28;45348;-53
2021/11/04 08:22:57;;;;;;;;;4.50;3.00;;;;;20.48;42.16;100403.38;4979321;28;45313;-55
2021/11/04 08:25:24;;;;;;;;;4.25;3.25;;;;;20.49;42.07;100402.44;4996776;28;45346;-54
2021/11/04 08:27:49;;;;;;;;;2.50;2.50;;;;;20.48;41.64;100403.38;4996653;28;45747;-54
2021/11/04 08:30:15;;;;;;;;;3.00;3.00;;;;;20.47;41.91;100415.69;4996083;28;45390;-56
2021/11/04 08:32:41;;;;;;;;;3.75;3.00;;;;;20.44;41.83;100410.63;4997026;28;45573;-60
2021/11/04 08:35:07;;;;;;;;;2.00;2.00;;;;;20.47;42.04;100420.09;4996648;28;47376;-55
2021/11/04 08:37:34;;;;;;;;;2.50;2.00;;;;;20.47;42.14;100420.97;4997000;28;45385;-60
2021/11/04 08:39:59;;;;;;;;;2.75;2.75;;;;;20.46;41.86;100428.94;4996689;28;45573;-51
2021/11/04 08:42:25;;;;;;;;;2.75;2.75;;;;;20.48;42.04;100432.31;4996790;28;45357;-60
2021/11/04 08:44:52;;;;;;;;;3.50;3.00;;;;;20.46;42.10;100434.19;4995538;28;45528;-54
2021/11/04 08:47:17;;;;;;;;;3.25;3.00;;;;;20.46;41.87;100436.84;4996554;28;45959;-56
2021/11/04 08:49:42;;;;;;;;;4.00;2.25;;;;;20.46;41.75;100436.84;4996615;28;45477;-49
2021/11/04 08:52:08;;;;;;;;;3.00;3.00;;;;;20.46;41.78;100444.72;4996808;28;45314;-48
2021/11/04 08:54:34;;;;;;;;;3.75;3.00;;;;;20.45;42.03;100437.81;4996125;28;46328;-58
2021/11/04 08:57:01;;;;;;;;;3.00;3.00;;;;;20.44;42.00;100441.38;4996454;28;45374;-57
2021/11/04 08:59:26;;;;;;;;;2.00;2.00;;;;;20.46;41.78;100439.47;4996349;28;45499;-58
2021/11/04 09:01:52;;;;;;;;;3.25;3.25;;;;;20.47;41.87;100441.16;4996626;28;45448;-57
2021/11/04 09:04:17;;;;;;;;;4.00;2.25;;;;;20.49;41.98;100449.81;4995961;28;47089;-54
2021/11/04 09:06:43;;;;;;;;;4.75;3.00;;;;;20.48;42.08;100443.72;4996065;28;45322;-59
2021/11/04 09:09:08;;;;;;;;;2.25;2.25;;;;;20.49;41.92;100452.44;4996282;28;45267;-57
2021/11/04 09:11:34;;;;;;;;;3.50;2.75;;;;;20.51;42.02;100447.94;4996884;28;45269;-53
2021/11/04 09:14:01;;;;;;;;;3.25;2.25;;;;;20.50;42.48;100454.13;4998202;28;46334;-53
2021/11/04 09:16:26;;;;;;;;;2.75;2.00;;;;;20.50;41.92;100472.56;4999646;28;45442;-61
2021/11/04 09:18:52;;;;;;;;;2.00;2.00;;;;;20.49;41.97;100461.22;4999805;28;45511;-53
2021/11/04 09:21:18;;;;;;;;;3.00;2.00;;;;;20.49;42.08;100470.88;4999938;28;45568;-61
2021/11/04 09:23:43;;;;;;;;;2.00;2.00;;;;;20.49;42.33;100465.59;4999366;28;45656;-61
2021/11/04 09:26:09;;;;;;;;;3.50;2.50;;;;;20.43;42.31;100461.56;4999514;28;45322;-57
2021/11/04 09:28:34;;;;;;;;;5.50;3.00;;;;;20.49;42.50;100481.41;4999811;28;45362;-61
2021/11/04 09:30:59;;;;;;;;;3.00;2.00;;;;;20.48;41.99;100475.31;4999787;28;45235;-57
2021/11/04 09:33:25;;;;;;;;;4.00;3.50;;;;;20.48;42.52;100482.34;4999363;28;46687;-62
2021/11/04 09:35:50;;;;;;;;;3.00;3.00;;;;;20.48;42.59;100479.72;4999518;28;45517;-57
2021/11/04 09:38:16;;;;;;;;;2.00;2.00;;;;;20.47;42.07;100473.63;4999334;28;45429;-60
2021/11/04 09:40:41;;;;;;;;;2.75;2.25;;;;;20.48;42.58;100477.94;4999494;28;45322;-56
2021/11/04 09:43:07;;;;;;;;;4.00;2.00;;;;;20.47;42.13;100475.38;4999406;28;45393;-61
2021/11/04 09:45:32;;;;;;;;;5.00;3.00;;;;;20.48;42.27;100480.56;4999335;28;45492;-58
2021/11/04 09:47:58;;;;;;;;;2.75;2.00;;;;;20.49;42.04;100484.03;4999279;28;45417;-55
2021/11/04 09:50:24;;;;;;;;;2.00;2.00;;;;;20.48;42.34;100491.09;4999386;28;45389;-58
2021/11/04 09:52:55;;;;;;;;;2.00;2.00;;;;;20.48;42.21;100484.97;4981285;28;46748;-61
2021/11/04 09:55:24;;;;;;;;;3.00;3.00;;;;;20.48;42.34;100490.25;4998855;28;45823;-62
2021/11/04 09:57:52;;;;;;;;;4.00;3.00;;;;;20.48;42.73;100491.09;4999155;28;45338;-55
2021/11/04 10:00:18;;;;;;;;;1.50;1.50;;;;;20.47;42.32;100493.81;4999161;28;45515;-53
2021/11/04 10:02:45;;;;;;;;;2.00;1.75;;;;;20.48;42.22;100501.63;4998778;28;46088;-50
2021/11/04 10:05:14;;;;;;;;;6.00;3.25;;;;;20.48;42.13;100504.25;4998885;28;45752;-45
2021/11/04 10:07:48;;;;;;;;;2.00;2.00;;;;;20.47;42.33;100502.56;4999347;28;45345;-55
2021/11/04 10:10:19;;;;;;;;;2.00;2.00;;;;;20.47;42.52;100504.34;4999000;28;45571;-50
2021/11/04 10:13:02;;;;;;;;;2.00;2.00;;;;;20.48;42.08;100506.03;4998695;28;46612;-49
2021/11/04 10:15:28;;;;;;;;;2.00;2.00;;;;;20.46;42.02;100507.91;4998832;28;45829;-58
2021/11/04 10:18:18;;;;;;;;;2.00;2.00;;;;;20.47;42.19;100515.72;4998804;28;45260;-60
2021/11/04 10:21:03;;;;;;;;;5.00;3.25;;;;;20.48;42.49;100512.16;4998918;28;45456;-60
2021/11/04 10:23:45;;;;;;;;;2.00;2.00;;;;;20.49;42.18;100513.00;4998558;28;45488;-59
2021/11/04 10:26:12;;;;;;;;;3.00;1.75;;;;;20.48;42.63;100516.56;4998799;28;45251;-61
2021/11/04 10:28:40;;;;;;;;;2.00;2.00;;;;;20.47;42.18;100514.88;4999118;28;45390;-61
2021/11/04 10:31:10;;;;;;;;;2.50;2.25;;;;;20.49;42.10;100524.38;4998871;28;45362;-61
2021/11/04 10:33:38;;;;;;;;;3.00;2.50;;;;;20.48;42.55;100521.84;4980758;28;48301;-60
2021/11/04 10:36:09;;;;;;;;;3.25;3.25;;;;;20.48;42.35;100521.84;4998388;28;45797;-57
2021/11/04 10:38:34;;;;;;;;;3.00;2.00;;;;;20.49;42.50;100518.25;4998372;28;45236;-58
2021/11/04 10:41:00;;;;;;;;;1.00;1.00;;;;;20.47;41.99;100523.63;4998618;28;45259;-60
2021/11/04 10:43:26;;;;;;;;;1.00;1.00;;;;;20.47;42.42;100520.13;4998237;28;45315;-59
2021/11/04 10:46:10;;;;;;;;;1.75;1.75;;;;;20.44;42.11;100512.44;4998227;28;45245;-58
2021/11/04 10:48:38;;;;;;;;;5.00;3.00;;;;;20.47;42.04;100528.03;4980548;28;45408;-59
2021/11/04 10:51:03;;;;;;;;;1.25;1.25;;;;;20.47;41.93;100528.91;4998449;28;45688;-59
2021/11/04 10:53:29;;;;;;;;;2.00;1.25;;;;;20.47;42.15;100530.66;4998118;28;45676;-48
2021/11/04 10:56:11;;;;;;;;;3.75;2.75;;;;;20.46;42.48;100524.56;4998133;28;45361;-56
2021/11/04 10:58:36;;;;;;;;;3.50;1.25;;;;;20.46;42.10;100523.69;4998098;28;45252;-51
2021/11/04 11:01:03;;;;;;;;;1.00;1.00;;;;;20.47;42.42;100528.03;4998277;28;45412;-52
2021/11/04 11:03:29;;;;;;;;;3.50;3.50;;;;;20.48;42.00;100527.97;4997897;28;46167;-57
2021/11/04 11:05:58;;;;;;;;;4.75;2.00;;;;;20.49;42.25;100528.78;4997979;28;45919;-56
2021/11/04 11:08:26;;;;;;;;;2.25;2.25;;;;;20.50;42.55;100530.50;4998148;28;45449;-52
2021/11/04 11:10:52;;;;;;;;;2.75;1.75;;;;;20.51;42.59;100542.72;4998253;28;45583;-55
2021/11/04 11:13:18;;;;;;;;;2.00;2.00;;;;;20.53;42.42;100532.94;4997729;28;45456;-58
2021/11/04 11:15:50;;;;;;;;;4.25;3.00;;;;;20.55;42.41;100545.06;4998207;28;45690;-54
2021/11/04 11:18:18;;;;;;;;;3.50;2.75;;;;;20.58;42.55;100554.56;4997860;28;45228;-60
2021/11/04 11:20:46;;;;;;;;;2.00;2.00;;;;;20.61;42.18;100551.75;4998551;28;45267;-59
2021/11/04 11:23:23;;;;;;;;;4.00;2.75;;;;;20.62;42.29;100563.97;4997698;28;46398;-54